Time;durP1;ratioP1;P1;durP2;ratioP2;P2;SDS_P1;SDS_P2;PMS_P1;PMS_P2;Temp;Humidity;BMP_temperature;BMP_pressure;BME280_temperature;BME280_humidity;BME280_pressure;Samples;Min_cycle;Max_cycle;Signal;HPM_P1;HPM_P2
2024/03/30 00:00:43;;;;;;;7.55;5.78;;;;;;;10.03;92.97;99199.50;4976751;28;20133;-80
2024/03/30 00:03:10;;;;;;;6.15;4.90;;;;;;;10.04;92.47;99194.06;4976854;28;20081;-80
2024/03/30 00:05:36;;;;;;;6.20;4.85;;;;;;;10.06;92.39;99192.09;4976931;28;20138;-79
2024/03/30 00:08:04;;;;;;;7.93;4.97;;;;;;;10.06;92.42;99197.38;4976564;28;20135;-79
2024/03/30 00:10:30;;;;;;;6.90;4.78;;;;;;;10.16;91.90;99201.66;4976395;28;20117;-81
2024/03/30 00:12:58;;;;;;;7.15;5.28;;;;;;;10.13;91.75;99195.72;4976950;28;20462;-80
2024/03/30 00:15:26;;;;;;;5.40;4.45;;;;;;;10.12;91.70;99196.69;4976993;28;20106;-81
2024/03/30 00:17:53;;;;;;;6.47;4.60;;;;;;;10.12;92.35;99195.88;4977463;28;20054;-81
2024/03/30 00:20:19;;;;;;;6.60;4.32;;;;;;;10.18;91.96;99189.09;4977635;28;20137;-78
2024/03/30 00:22:46;;;;;;;6.63;4.47;;;;;;;10.20;91.44;99193.22;4977172;28;20066;-81
2024/03/30 00:25:13;;;;;;;6.88;4.55;;;;;;;10.22;91.78;99196.50;4977685;28;20118;-79
2024/03/30 00:27:40;;;;;;;6.15;4.50;;;;;;;10.18;92.05;99191.72;4977390;28;20055;-81
2024/03/30 00:30:07;;;;;;;6.32;4.72;;;;;;;10.09;92.43;99175.91;4977211;28;20102;-78
2024/03/30 00:32:34;;;;;;;8.35;4.50;;;;;;;9.98;93.16;99160.38;4976776;28;20078;-81
2024/03/30 00:34:59;;;;;;;6.32;4.75;;;;;;;9.98;93.51;99149.78;4977682;28;20078;-79
2024/03/30 00:37:26;;;;;;;5.10;4.50;;;;;;;10.03;93.24;99144.00;4977883;28;20062;-81
2024/03/30 00:39:51;;;;;;;6.43;4.68;;;;;;;9.96;93.49;99141.22;4977330;28;20055;-80
2024/03/30 00:42:20;;;;;;;5.60;4.90;;;;;;;9.87;94.52;99147.50;4977128;28;20055;-81
2024/03/30 00:44:46;;;;;;;7.80;6.57;;;;;;;9.86;95.18;99137.91;4977741;28;20054;-81
2024/03/30 00:47:12;;;;;;;7.53;5.65;;;;;;;9.84;94.89;99134.63;4977597;28;20113;-80
2024/03/30 00:49:38;;;;;;;7.40;6.15;;;;;;;9.79;95.41;99129.84;4976929;28;20087;-81
2024/03/30 00:52:05;;;;;;;8.75;7.45;;;;;;;9.77;95.37;99123.06;4977962;28;20085;-80
2024/03/30 00:54:31;;;;;;;8.40;7.25;;;;;;;9.70;95.73;99122.91;4977723;28;20081;-81
2024/03/30 00:56:58;;;;;;;10.45;8.43;;;;;;;9.65;95.81;99117.28;4976758;28;20050;-80
2024/03/30 00:59:24;;;;;;;11.38;9.35;;;;;;;9.67;95.87;99111.84;4976953;28;20106;-81
2024/03/30 01:01:51;;;;;;;12.82;10.32;;;;;;;9.59;96.66;99110.84;4976816;28;20082;-81
2024/03/30 01:04:17;;;;;;;15.82;11.18;;;;;;;9.52;97.32;99104.59;4978249;28;20050;-80
2024/03/30 01:06:44;;;;;;;16.02;12.45;;;;;;;9.50;97.40;99105.72;4977134;28;20153;-81
2024/03/30 01:09:09;;;;;;;15.52;13.00;;;;;;;9.47;98.09;99106.91;4977990;28;20081;-81
2024/03/30 01:11:37;;;;;;;16.45;13.82;;;;;;;9.46;97.91;99099.94;4977906;28;20393;-81
2024/03/30 01:14:04;;;;;;;18.50;13.95;;;;;;;9.43;98.15;99100.28;4975119;28;20564;-81
2024/03/30 01:16:33;;;;;;;18.08;15.05;;;;;;;9.41;98.40;99109.34;4981344;28;20051;-80
2024/03/30 01:18:59;;;;;;;19.60;16.50;;;;;;;9.34;98.64;99096.00;4978106;28;20086;-81
2024/03/30 01:21:26;;;;;;;19.95;16.08;;;;;;;9.30;99.15;99092.84;4977921;28;20066;-81
2024/03/30 01:23:52;;;;;;;22.30;17.52;;;;;;;9.33;99.24;99086.41;4981391;28;20110;-81
2024/03/30 01:26:20;;;;;;;25.70;18.23;;;;;;;9.28;99.19;99088.72;4981759;28;20078;-78
2024/03/30 01:28:46;;;;;;;25.23;18.90;;;;;;;9.30;98.92;99094.66;4982044;28;20082;-81
2024/03/30 01:31:14;;;;;;;25.88;18.88;;;;;;;9.27;99.22;99092.34;4977915;28;20118;-80
2024/03/30 01:33:42;;;;;;;24.80;18.60;;;;;;;9.27;98.99;99087.88;4976220;28;20133;-81
2024/03/30 01:36:08;;;;;;;25.48;17.40;;;;;;;9.24;98.86;99076.81;4974661;28;20054;-78
2024/03/30 01:38:34;;;;;;;25.83;16.75;;;;;;;9.24;98.96;99079.47;4975043;28;20078;-80
2024/03/30 01:41:01;;;;;;;22.45;16.88;;;;;;;9.26;98.38;99088.88;4975462;28;20058;-80
2024/03/30 01:43:26;;;;;;;22.00;16.65;;;;;;;9.24;98.72;99075.03;4978400;28;20090;-79
2024/03/30 01:45:56;;;;;;;21.65;16.67;;;;;;;9.22;98.92;99077.00;4976002;28;20512;-80
2024/03/30 01:48:23;;;;;;;23.05;16.02;;;;;;;9.21;98.59;99071.91;4975127;28;20146;-80
2024/03/30 01:50:53;;;;;;;18.55;14.55;;;;;;;9.21;98.72;99058.69;4975354;28;20103;-79
2024/03/30 01:53:22;;;;;;;24.55;15.13;;;;;;;9.20;99.14;99062.34;4975408;28;20074;-80
2024/03/30 01:55:51;;;;;;;16.65;13.52;;;;;;;9.22;99.02;99065.63;4975311;28;20063;-81
2024/03/30 01:58:23;;;;;;;19.98;14.55;;;;;;;9.24;98.25;99064.47;4975050;28;20057;-79
2024/03/30 02:00:50;;;;;;;18.67;13.75;;;;;;;9.24;98.66;99050.44;4974803;28;20070;-78
2024/03/30 02:03:18;;;;;;;17.52;12.70;;;;;;;9.23;98.96;99057.53;4974924;28;20111;-79
2024/03/30 02:05:45;;;;;;;17.98;13.48;;;;;;;9.14;99.09;99052.41;4975246;28;20146;-78
2024/03/30 02:08:12;;;;;;;16.38;13.48;;;;;;;9.18;99.16;99053.75;4974526;28;20481;-80
2024/03/30 02:10:40;;;;;;;17.75;13.43;;;;;;;9.17;99.27;99041.53;4975291;28;20153;-80
2024/03/30 02:13:06;;;;;;;17.52;13.40;;;;;;;9.14;99.39;99044.50;4977962;28;20043;-80
2024/03/30 02:15:33;;;;;;;20.02;13.68;;;;;;;9.13;99.43;99025.19;4980262;28;20120;-78
2024/03/30 02:17:59;;;;;;;17.88;13.93;;;;;;;9.15;99.14;99030.31;4979670;28;20090;-80
2024/03/30 02:20:26;;;;;;;18.35;14.75;;;;;;;9.10;99.62;99026.34;4979207;28;20051;-80
2024/03/30 02:22:52;;;;;;;18.20;13.82;;;;;;;9.09;99.31;99029.16;4977913;28;20110;-78
2024/03/30 02:25:21;;;;;;;19.05;13.75;;;;;;;9.10;99.66;99017.59;4979581;28;20071;-81
2024/03/30 02:27:47;;;;;;;16.75;13.13;;;;;;;9.10;99.91;99021.06;4983737;28;20062;-79
2024/03/30 02:30:22;;;;;;;16.65;13.45;;;;;;;9.14;99.68;99011.00;4984130;28;20066;-81
2024/03/30 02:32:50;;;;;;;17.63;13.70;;;;;;;9.14;99.10;99007.53;4984375;28;20066;-80
2024/03/30 02:35:17;;;;;;;17.50;13.60;;;;;;;9.11;99.46;99003.44;4984039;28;20448;-80
2024/03/30 02:37:44;;;;;;;17.48;14.20;;;;;;;9.05;99.76;98993.53;4983526;28;20101;-81
2024/03/30 02:40:11;;;;;;;19.50;14.40;;;;;;;9.08;99.43;98991.38;4981489;28;20051;-81
2024/03/30 02:42:38;;;;;;;20.70;14.23;;;;;;;9.06;99.83;98990.75;4981147;28;20078;-80
2024/03/30 02:45:06;;;;;;;17.55;14.55;;;;;;;9.06;100.00;98980.19;4977534;28;20109;-81
2024/03/30 02:47:31;;;;;;;18.65;15.13;;;;;;;9.03;99.84;98972.59;4976702;28;20142;-81
2024/03/30 02:49:58;;;;;;;15.95;13.90;;;;;;;8.97;99.88;98983.78;4975740;28;20043;-78
2024/03/30 02:52:24;;;;;;;21.90;14.60;;;;;;;8.97;100.00;98973.22;4976487;28;20082;-81
2024/03/30 02:54:50;;;;;;;16.27;13.35;;;;;;;8.96;100.00;98979.50;4975854;28;20053;-80
2024/03/30 02:57:16;;;;;;;18.63;13.90;;;;;;;8.96;99.97;98976.03;4978633;28;20089;-80
2024/03/30 02:59:44;;;;;;;19.42;13.70;;;;;;;8.94;99.95;98963.03;4982442;28;20047;-81
2024/03/30 03:02:09;;;;;;;18.83;14.07;;;;;;;8.97;100.00;98967.97;4976543;28;20441;-80
2024/03/30 03:04:36;;;;;;;21.83;15.02;;;;;;;8.97;99.58;98967.97;4975121;28;20210;-80
2024/03/30 03:07:02;;;;;;;21.13;15.73;;;;;;;8.94;99.85;98983.31;4974761;28;20070;-81
2024/03/30 03:09:29;;;;;;;17.55;14.73;;;;;;;8.87;99.78;98980.50;4977381;28;20055;-80
2024/03/30 03:11:55;;;;;;;20.27;15.02;;;;;;;8.88;99.74;98978.69;4982908;28;20510;-81
2024/03/30 03:14:22;;;;;;;20.40;15.15;;;;;;;8.84;99.62;98991.41;4984162;28;20177;-80
2024/03/30 03:16:48;;;;;;;19.17;14.43;;;;;;;8.75;99.80;98982.66;4984323;28;20090;-82
2024/03/30 03:19:15;;;;;;;18.42;13.68;;;;;;;8.76;100.00;98991.38;4981145;28;20110;-81
2024/03/30 03:21:41;;;;;;;17.02;13.57;;;;;;;8.73;99.93;98981.13;4979121;28;20565;-78
2024/03/30 03:24:07;;;;;;;20.63;14.20;;;;;;;8.74;100.00;98978.34;4977569;28;20146;-78
2024/03/30 03:26:33;;;;;;;18.73;14.60;;;;;;;8.73;99.95;98968.78;4978461;28;20505;-80
2024/03/30 03:29:00;;;;;;;20.42;14.75;;;;;;;8.64;99.83;98971.56;4978400;28;20058;-81
2024/03/30 03:31:25;;;;;;;17.73;13.75;;;;;;;8.58;100.00;98973.88;4979803;28;20088;-79
2024/03/30 03:33:53;;;;;;;24.42;15.23;;;;;;;8.66;100.00;98965.16;4982473;28;20058;-80
2024/03/30 03:36:19;;;;;;;19.73;15.60;;;;;;;8.63;100.00;98964.66;4977830;28;20129;-79
2024/03/30 03:38:45;;;;;;;22.80;15.85;;;;;;;8.65;100.00;98955.56;4978468;28;20082;-81
2024/03/30 03:41:11;;;;;;;21.10;15.05;;;;;;;8.64;100.00;98963.66;4978582;28;20114;-81
2024/03/30 03:43:40;;;;;;;22.73;16.02;;;;;;;8.69;100.00;98954.25;4979443;28;20544;-82
2024/03/30 03:46:06;;;;;;;20.98;15.93;;;;;;;8.72;100.00;98961.84;4979191;28;20066;-81
2024/03/30 03:48:32;;;;;;;22.75;16.35;;;;;;;8.72;100.00;98961.03;4979030;28;20050;-82
2024/03/30 03:50:59;;;;;;;25.15;17.33;;;;;;;8.70;100.00;98955.91;4994105;28;20058;-81
2024/03/30 03:53:26;;;;;;;26.45;17.73;;;;;;;8.69;100.00;98956.09;4994324;28;20106;-82
2024/03/30 03:55:52;;;;;;;23.20;16.50;;;;;;;8.64;100.00;98947.84;4992925;28;20086;-81
2024/03/30 03:58:19;;;;;;;23.92;17.75;;;;;;;8.63;100.00;98943.56;4979325;28;20046;-79
2024/03/30 04:00:44;;;;;;;26.00;17.00;;;;;;;8.63;100.00;98954.09;4979096;28;20453;-81
2024/03/30 04:03:11;;;;;;;23.85;16.65;;;;;;;8.63;100.00;98954.09;4978292;28;20117;-81
2024/03/30 04:05:37;;;;;;;23.05;15.90;;;;;;;8.57;100.00;98956.41;4978094;28;20115;-81
2024/03/30 04:08:05;;;;;;;26.63;17.65;;;;;;;8.58;100.00;98957.22;4960159;28;20079;-80
2024/03/30 04:10:31;;;;;;;27.70;17.92;;;;;;;8.62;100.00;98953.28;4978985;28;20076;-80
2024/03/30 04:12:59;;;;;;;27.48;17.55;;;;;;;8.62;100.00;98945.38;4978352;28;20524;-81
2024/03/30 04:15:24;;;;;;;28.58;18.60;;;;;;;8.56;100.00;98938.09;4978952;28;20106;-81
2024/03/30 04:17:52;;;;;;;24.55;17.73;;;;;;;8.56;100.00;98943.38;4978251;28;20062;-80
2024/03/30 04:20:18;;;;;;;27.90;18.35;;;;;;;8.54;100.00;98935.63;4978993;28;20047;-81
2024/03/30 04:22:44;;;;;;;27.58;19.13;;;;;;;8.55;100.00;98931.19;4979748;28;20544;-78
2024/03/30 04:25:11;;;;;;;24.50;17.15;;;;;;;8.54;100.00;98930.38;4978540;28;20066;-81
2024/03/30 04:27:38;;;;;;;27.35;17.63;;;;;;;8.55;100.00;98939.91;4980900;28;20053;-81
2024/03/30 04:30:07;;;;;;;25.48;17.27;;;;;;;8.55;100.00;98934.63;4981694;28;20078;-81
2024/03/30 04:32:33;;;;;;;25.85;17.15;;;;;;;8.54;100.00;98935.63;4979733;28;20125;-81
2024/03/30 04:34:59;;;;;;;23.90;16.85;;;;;;;8.56;100.00;98933.66;4977952;28;20090;-81
2024/03/30 04:37:26;;;;;;;26.83;17.90;;;;;;;8.52;100.00;98929.69;4977802;28;20050;-82
2024/03/30 04:39:52;;;;;;;27.50;18.67;;;;;;;8.53;100.00;98926.09;4978188;28;20090;-78
2024/03/30 04:42:20;;;;;;;26.40;17.58;;;;;;;8.52;100.00;98932.31;4977997;28;20095;-80
2024/03/30 04:44:47;;;;;;;23.50;16.75;;;;;;;8.53;100.00;98923.44;4977782;28;20137;-82
2024/03/30 04:47:13;;;;;;;24.63;16.77;;;;;;;8.55;100.00;98905.63;4977215;28;20110;-80
2024/03/30 04:49:39;;;;;;;27.15;17.67;;;;;;;8.56;100.00;98912.56;4978031;28;20111;-82
2024/03/30 04:52:05;;;;;;;25.60;17.70;;;;;;;8.52;100.00;98908.59;4977872;28;20086;-81
2024/03/30 04:54:32;;;;;;;22.55;16.42;;;;;;;8.53;100.00;98902.34;4978082;28;20137;-79
2024/03/30 04:56:58;;;;;;;23.63;16.42;;;;;;;8.56;99.95;98906.47;4978068;28;20054;-82
2024/03/30 04:59:26;;;;;;;23.50;16.60;;;;;;;8.55;100.00;98904.81;4978446;28;20178;-80
2024/03/30 05:01:51;;;;;;;25.65;17.10;;;;;;;8.53;99.99;98906.81;4977783;28;20082;-81
2024/03/30 05:04:18;;;;;;;24.13;16.55;;;;;;;8.56;100.00;98901.19;4976764;28;20051;-80
2024/03/30 05:06:43;;;;;;;24.63;16.13;;;;;;;8.54;99.86;98898.72;4976855;28;20054;-78
2024/03/30 05:09:10;;;;;;;24.58;17.42;;;;;;;8.56;99.69;98899.38;4977169;28;20051;-81
2024/03/30 05:11:36;;;;;;;24.92;17.00;;;;;;;8.52;100.00;98895.41;4978014;28;20110;-81
2024/03/30 05:14:02;;;;;;;25.40;17.92;;;;;;;8.51;100.00;98896.41;4977433;28;20070;-81
2024/03/30 05:16:29;;;;;;;26.90;17.00;;;;;;;8.53;100.00;98894.44;4977284;28;20109;-81
2024/03/30 05:18:56;;;;;;;24.75;16.80;;;;;;;8.50;100.00;98896.56;4977068;28;20051;-82
2024/03/30 05:21:24;;;;;;;24.10;16.65;;;;;;;8.50;100.00;98896.56;4977262;28;20070;-81
2024/03/30 05:23:51;;;;;;;24.42;17.08;;;;;;;8.51;100.00;98892.94;4977271;28;20070;-81
2024/03/30 05:26:17;;;;;;;23.08;17.20;;;;;;;8.48;100.00;98901.19;4976746;28;20055;-79
2024/03/30 05:28:43;;;;;;;26.42;18.08;;;;;;;8.49;100.00;98890.50;4976659;28;20661;-81
2024/03/30 05:31:19;;;;;;;25.02;17.35;;;;;;;8.48;100.00;98895.91;4977046;28;20259;-81
2024/03/30 05:33:47;;;;;;;25.83;17.48;;;;;;;8.49;100.00;98889.66;4977084;28;20077;-82
2024/03/30 05:36:14;;;;;;;22.77;16.63;;;;;;;8.48;100.00;98893.25;4975990;28;20764;-81
2024/03/30 05:38:40;;;;;;;25.10;18.35;;;;;;;8.53;100.00;98891.81;4977501;28;20065;-81
2024/03/30 05:41:06;;;;;;;29.00;18.40;;;;;;;8.59;100.00;98887.69;4976882;28;20101;-81
2024/03/30 05:43:33;;;;;;;29.27;17.38;;;;;;;8.63;100.00;98901.38;4977147;28;20055;-82
2024/03/30 05:45:58;;;;;;;25.75;19.45;;;;;;;8.61;99.78;98894.44;4976812;28;20082;-79
2024/03/30 05:48:25;;;;;;;25.15;18.55;;;;;;;8.64;100.00;98903.00;4977417;28;20050;-82
2024/03/30 05:50:52;;;;;;;27.17;18.70;;;;;;;8.63;100.00;98901.38;4976573;28;20050;-81
2024/03/30 05:53:18;;;;;;;23.50;17.50;;;;;;;8.70;99.91;98904.97;4977049;28;20057;-80
2024/03/30 05:55:46;;;;;;;24.13;17.58;;;;;;;8.72;99.98;98903.84;4976428;28;20137;-82
2024/03/30 05:58:14;;;;;;;28.33;19.13;;;;;;;8.78;99.65;98905.81;4975844;28;20501;-79
2024/03/30 06:00:40;;;;;;;29.77;19.58;;;;;;;8.92;99.25;98893.75;4976513;28;20075;-81
2024/03/30 06:03:07;;;;;;;24.77;18.42;;;;;;;8.86;99.65;98897.06;4976014;28;20122;-79
2024/03/30 06:05:33;;;;;;;24.30;18.20;;;;;;;8.90;99.74;98881.75;4975803;28;20051;-81
2024/03/30 06:08:01;;;;;;;23.65;18.23;;;;;;;8.89;99.43;98864.28;4975507;28;20125;-81
2024/03/30 06:10:27;;;;;;;23.58;17.52;;;;;;;8.91;99.26;98878.94;4968300;28;20149;-80
2024/03/30 06:12:53;;;;;;;28.35;19.23;;;;;;;8.92;99.19;98885.84;4976790;28;20054;-82
2024/03/30 06:15:19;;;;;;;23.38;18.20;;;;;;;8.99;99.93;98889.47;4976002;28;20086;-81
2024/03/30 06:17:46;;;;;;;23.92;18.42;;;;;;;9.03;98.85;98888.16;4976266;28;20512;-79
2024/03/30 06:20:11;;;;;;;25.55;17.58;;;;;;;9.15;98.70;98893.88;4976517;28;20053;-82
2024/03/30 06:22:38;;;;;;;23.48;17.35;;;;;;;9.14;98.63;98892.25;4976981;28;20054;-81
2024/03/30 06:25:06;;;;;;;25.55;18.13;;;;;;;9.17;98.51;98896.38;4977198;28;20473;-81
2024/03/30 06:27:33;;;;;;;26.77;18.58;;;;;;;9.27;98.98;98895.19;4977905;28;20430;-81
2024/03/30 06:29:59;;;;;;;22.10;17.27;;;;;;;9.29;97.83;98906.44;4975253;28;20055;-81
2024/03/30 06:32:26;;;;;;;26.88;17.23;;;;;;;9.27;97.59;98920.78;4979722;28;20078;-81
2024/03/30 06:34:51;;;;;;;22.98;17.08;;;;;;;9.25;98.01;98913.03;4982754;28;20182;-81
2024/03/30 06:37:18;;;;;;;22.00;16.45;;;;;;;9.28;98.33;98917.13;4975735;28;20447;-78
2024/03/30 06:45:14;;;;;;;21.98;16.27;;;;;;;9.18;98.69;98921.78;4975295;28;20057;-79
2024/03/30 06:47:41;;;;;;;24.67;16.30;;;;;;;9.31;98.06;98927.38;4978211;28;20082;-80
2024/03/30 06:50:08;;;;;;;22.42;15.82;;;;;;;9.42;98.11;98931.47;4980616;28;20087;-82
2024/03/30 06:52:35;;;;;;;22.85;16.25;;;;;;;9.44;97.46;98927.66;4980765;28;20506;-79
2024/03/30 06:55:01;;;;;;;23.13;15.80;;;;;;;9.49;97.19;98940.38;4979746;28;20114;-79
2024/03/30 06:57:30;;;;;;;24.83;15.75;;;;;;;9.53;97.16;98926.66;4979303;28;20086;-80
2024/03/30 06:59:56;;;;;;;20.33;14.25;;;;;;;9.67;97.12;98932.22;4979238;28;20055;-81
2024/03/30 07:02:23;;;;;;;23.08;14.50;;;;;;;9.71;96.60;98944.09;4980390;28;20105;-79
2024/03/30 07:04:50;;;;;;;21.30;14.05;;;;;;;9.73;97.20;98931.53;4980001;28;20054;-81
2024/03/30 07:07:16;;;;;;;18.95;13.57;;;;;;;9.86;96.52;98942.38;4979200;28;20138;-80
2024/03/30 07:09:42;;;;;;;16.00;12.68;;;;;;;9.91;95.70;98940.06;4980219;28;20090;-80
2024/03/30 07:12:08;;;;;;;24.48;12.25;;;;;;;9.98;95.62;98941.03;4979770;28;20117;-82
2024/03/30 07:14:36;;;;;;;17.95;11.93;;;;;;;9.99;95.02;98936.56;4978645;28;20500;-81
2024/03/30 07:17:02;;;;;;;13.73;10.77;;;;;;;10.03;95.88;98954.53;4979134;28;20053;-81
2024/03/30 07:19:28;;;;;;;16.88;10.52;;;;;;;10.09;95.23;98953.88;4978886;28;20489;-81
2024/03/30 07:21:54;;;;;;;13.27;10.40;;;;;;;10.28;93.54;98935.97;4979319;28;20129;-82
2024/03/30 07:24:20;;;;;;;12.38;8.93;;;;;;;10.42;92.45;98921.16;4978601;28;20504;-81
2024/03/30 07:26:46;;;;;;;11.05;8.52;;;;;;;10.47;93.20;98935.50;4978256;28;20086;-80
2024/03/30 07:29:13;;;;;;;15.45;8.73;;;;;;;10.51;92.55;98939.44;4978033;28;20059;-80
2024/03/30 07:31:40;;;;;;;13.05;9.45;;;;;;;10.49;92.95;98952.03;4978157;28;20066;-82
2024/03/30 07:34:06;;;;;;;15.55;9.00;;;;;;;10.56;92.48;98950.31;4975007;28;20050;-80
2024/03/30 07:36:32;;;;;;;12.05;9.30;;;;;;;10.58;92.29;98932.47;4974907;28;20141;-79
2024/03/30 07:38:59;;;;;;;13.80;9.35;;;;;;;10.52;92.46;98927.84;4975346;28;20106;-79
2024/03/30 07:41:24;;;;;;;14.48;9.10;;;;;;;10.61;92.62;98933.91;4974805;28;20117;-78
2024/03/30 07:43:51;;;;;;;12.25;8.35;;;;;;;10.69;92.22;98938.34;4975175;28;20059;-80
2024/03/30 07:46:16;;;;;;;12.77;7.40;;;;;;;10.85;91.69;98927.63;4975232;28;21564;-79
2024/03/30 07:48:44;;;;;;;12.80;6.57;;;;;;;10.92;90.43;98922.44;4977922;28;20082;-80
2024/03/30 07:51:10;;;;;;;9.75;6.38;;;;;;;11.05;89.86;98912.06;4978214;28;20173;-81
2024/03/30 07:53:37;;;;;;;11.20;6.80;;;;;;;11.01;90.36;98922.19;4978707;28;20050;-79
2024/03/30 07:56:03;;;;;;;9.65;6.47;;;;;;;11.11;90.11;98909.50;4977006;28;20355;-78
2024/03/30 07:58:29;;;;;;;9.45;5.90;;;;;;;11.18;89.40;98901.69;4976768;28;20203;-80
2024/03/30 08:00:57;;;;;;;8.23;5.50;;;;;;;11.33;89.53;98907.81;4977893;28;20050;-81
2024/03/30 08:03:23;;;;;;;11.05;5.88;;;;;;;11.45;88.18;98912.66;4980645;28;20587;-80
2024/03/30 08:06:00;;;;;;;12.65;5.97;;;;;;;11.57;87.46;98912.03;4987549;28;20108;-81
2024/03/30 08:08:35;;;;;;;8.90;5.53;;;;;;;11.60;87.02;98906.34;4979554;28;20050;-80
2024/03/30 08:11:01;;;;;;;8.63;6.10;;;;;;;11.78;86.69;98899.84;4979793;28;20452;-80
2024/03/30 08:13:28;;;;;;;11.35;6.20;;;;;;;11.78;85.62;98907.81;4979672;28;20102;-82
2024/03/30 08:15:54;;;;;;;12.35;6.15;;;;;;;11.78;85.50;98907.81;4981532;28;20047;-81
2024/03/30 08:18:21;;;;;;;10.65;6.00;;;;;;;11.92;84.64;98909.69;4981027;28;20058;-82
2024/03/30 08:20:57;;;;;;;11.40;6.60;;;;;;;12.09;83.72;98908.44;4979253;28;20101;-80
2024/03/30 08:23:25;;;;;;;11.32;5.80;;;;;;;12.30;83.36;98899.69;4979375;28;20062;-82
2024/03/30 08:25:51;;;;;;;9.90;5.97;;;;;;;12.49;81.65;98889.47;4979475;28;20065;-81
2024/03/30 08:28:24;;;;;;;7.47;5.70;;;;;;;12.37;83.10;98899.78;4979864;28;20214;-81
2024/03/30 08:30:54;;;;;;;;;;;;;;;12.52;82.06;98894.41;4980048;28;20138;-78
2024/03/30 08:33:24;;;;;;;12.07;6.72;;;;;;;12.79;81.60;98906.09;4982925;28;20299;-81
2024/03/30 08:36:00;;;;;;;12.73;6.18;;;;;;;12.60;81.98;98891.63;4985140;28;20066;-82
2024/03/30 08:38:29;;;;;;;12.45;5.50;;;;;;;12.77;81.94;98886.88;4988126;28;20110;-81
2024/03/30 08:40:54;;;;;;;8.50;5.80;;;;;;;12.85;80.53;98884.09;4980025;28;20451;-79
2024/03/30 08:43:25;;;;;;;9.77;5.22;;;;;;;12.93;80.66;98888.44;4980850;28;20081;-81
2024/03/30 08:45:50;;;;;;;15.18;5.28;;;;;;;13.06;80.27;98885.88;4979701;28;20134;-80
2024/03/30 08:48:19;;;;;;;10.25;5.32;;;;;;;13.18;79.04;98884.34;4979235;28;20086;-80
2024/03/30 08:50:44;;;;;;;9.30;5.20;;;;;;;13.12;79.71;98882.44;4981156;28;20047;-80
2024/03/30 08:53:11;;;;;;;10.18;6.25;;;;;;;13.48;78.72;98884.97;4983771;28;20082;-81
2024/03/30 08:55:39;;;;;;;11.95;5.45;;;;;;;13.71;78.34;98884.69;4983928;28;20074;-80
2024/03/30 08:58:15;;;;;;;10.02;5.30;;;;;;;13.80;78.13;98885.34;4984134;28;20054;-80
2024/03/30 09:00:43;;;;;;;10.43;5.20;;;;;;;13.69;77.39;98892.03;4981437;28;20047;-80
2024/03/30 09:03:09;;;;;;;13.77;5.40;;;;;;;13.85;77.35;98901.53;4979300;28;20402;-80
2024/03/30 09:05:35;;;;;;;14.23;5.20;;;;;;;13.97;75.42;98893.78;4977570;28;20588;-79
2024/03/30 09:08:02;;;;;;;12.43;5.10;;;;;;;14.22;74.88;98894.09;4977001;28;20055;-80
2024/03/30 09:10:27;;;;;;;16.15;5.40;;;;;;;14.44;74.11;98900.91;4978099;28;20137;-81
2024/03/30 09:12:56;;;;;;;16.58;4.95;;;;;;;14.26;72.88;98903.31;4976872;28;20130;-81
2024/03/30 09:15:21;;;;;;;11.95;4.90;;;;;;;14.16;73.38;98915.16;4975759;28;20055;-80
2024/03/30 09:17:48;;;;;;;13.68;4.65;;;;;;;14.50;74.14;98918.75;4976678;28;20082;-80
2024/03/30 09:20:14;;;;;;;12.65;4.80;;;;;;;14.48;72.96;98918.16;4976993;28;20138;-80
2024/03/30 09:22:42;;;;;;;14.57;5.15;;;;;;;14.57;72.74;98905.47;4977172;28;20113;-79
2024/03/30 09:25:13;;;;;;;14.60;4.95;;;;;;;14.52;72.93;98907.91;4977389;28;20182;-80
2024/03/30 09:27:40;;;;;;;10.63;5.00;;;;;;;14.40;73.21;98907.66;4977384;28;20074;-80
2024/03/30 09:30:10;;;;;;;12.93;4.88;;;;;;;14.38;73.04;98893.72;4977022;28;20055;-81
2024/03/30 09:32:39;;;;;;;12.15;5.72;;;;;;;14.26;72.49;98888.16;4977020;28;20141;-80
2024/03/30 09:35:06;;;;;;;14.45;4.22;;;;;;;14.36;72.14;98893.91;4976276;28;20070;-78
2024/03/30 09:37:32;;;;;;;12.88;4.00;;;;;;;14.39;72.37;98898.03;4976073;28;20054;-80
2024/03/30 09:39:58;;;;;;;16.33;4.78;;;;;;;14.62;70.90;98887.84;4975312;28;20051;-80
2024/03/30 09:42:30;;;;;;;15.35;4.75;;;;;;;14.89;70.41;98890.53;4975458;28;20271;-80
2024/03/30 09:44:56;;;;;;;16.13;5.03;;;;;;;15.07;68.23;98895.25;4974923;28;20228;-79
2024/03/30 09:47:26;;;;;;;18.98;4.65;;;;;;;15.28;67.33;98891.53;4974787;28;20224;-81
2024/03/30 09:49:52;;;;;;;17.23;4.97;;;;;;;15.39;66.56;98889.03;4975672;28;20463;-80
2024/03/30 09:52:21;;;;;;;21.30;4.53;;;;;;;15.55;65.75;98897.66;4975997;28;20085;-80
2024/03/30 09:54:50;;;;;;;21.17;5.60;;;;;;;15.58;64.83;98891.88;4976041;28;20073;-83
2024/03/30 09:57:17;;;;;;;17.92;4.72;;;;;;;15.81;64.16;98902.13;4974639;28;20050;-81
2024/03/30 09:59:43;;;;;;;24.52;5.13;;;;;;;15.98;64.00;98895.25;4974602;28;20438;-80
2024/03/30 10:02:14;;;;;;;27.05;5.07;;;;;;;16.10;63.30;98901.56;4977206;28;20043;-82
2024/03/30 10:04:55;;;;;;;18.45;4.72;;;;;;;16.33;61.95;98894.88;4983087;28;20117;-83
2024/03/30 10:07:31;;;;;;;18.48;4.90;;;;;;;16.60;62.44;98900.88;4979692;28;20142;-80
2024/03/30 10:10:01;;;;;;;18.10;4.45;;;;;;;16.94;60.31;98918.34;4975924;28;20463;-81
2024/03/30 10:12:33;;;;;;;21.27;4.80;;;;;;;17.08;59.51;98913.72;4975333;28;20047;-80
2024/03/30 10:15:04;;;;;;;27.42;6.55;;;;;;;17.03;57.78;98913.56;4977502;28;20051;-81
2024/03/30 10:17:34;;;;;;;20.90;5.72;;;;;;;16.92;57.64;98915.06;4976369;28;20199;-81
2024/03/30 10:20:02;;;;;;;26.67;6.13;;;;;;;16.83;59.69;98917.22;4976225;28;20138;-82
2024/03/30 10:22:29;;;;;;;26.92;6.10;;;;;;;16.76;59.42;98920.97;4971723;28;20413;-80
2024/03/30 10:24:56;;;;;;;27.25;5.53;;;;;;;16.65;58.96;98928.59;4981048;28;20093;-80
2024/03/30 10:27:22;;;;;;;29.33;5.53;;;;;;;16.47;60.58;98927.66;4981413;28;20051;-81
2024/03/30 10:29:48;;;;;;;34.88;5.43;;;;;;;16.42;59.78;98937.13;4983221;28;20111;-82
2024/03/30 10:32:14;;;;;;;23.55;5.78;;;;;;;16.36;59.06;98931.84;4984959;28;20135;-80
2024/03/30 10:34:40;;;;;;;29.73;6.70;;;;;;;16.39;58.51;98932.25;4982330;28;20122;-80
2024/03/30 10:37:09;;;;;;;23.77;5.40;;;;;;;16.35;59.63;98935.56;4981301;28;20134;-80
2024/03/30 10:39:34;;;;;;;33.75;6.40;;;;;;;16.43;57.70;98938.81;4981334;28;20062;-81
2024/03/30 10:42:01;;;;;;;34.38;8.10;;;;;;;16.55;54.48;98949.59;4981572;28;20109;-78
2024/03/30 10:44:28;;;;;;;33.88;5.57;;;;;;;16.46;55.90;98948.22;4981975;28;20079;-80
2024/03/30 10:46:54;;;;;;;34.13;6.22;;;;;;;16.47;55.72;98960.53;4980578;28;20086;-81
2024/03/30 10:49:21;;;;;;;39.65;6.43;;;;;;;16.48;55.07;98956.03;4981831;28;20529;-81
2024/03/30 10:51:48;;;;;;;36.35;6.53;;;;;;;16.46;55.21;98961.56;4983583;28;20073;-80
2024/03/30 10:54:19;;;;;;;31.40;6.32;;;;;;;16.31;55.58;98955.69;4982752;28;20129;-80
2024/03/30 10:56:49;;;;;;;40.17;7.03;;;;;;;16.32;56.30;98960.00;4980652;28;20125;-79
2024/03/30 10:59:17;;;;;;;33.85;8.23;;;;;;;16.24;56.59;98981.59;4979911;28;20512;-81
2024/03/30 11:01:47;;;;;;;37.47;6.25;;;;;;;16.17;56.06;98976.28;4982978;28;20058;-80
2024/03/30 11:04:15;;;;;;;30.80;5.85;;;;;;;16.29;55.88;98968.44;4987411;28;20110;-81
2024/03/30 11:06:43;;;;;;;39.05;6.57;;;;;;;16.25;55.04;98941.38;4991311;28;20082;-81
2024/03/30 11:09:10;;;;;;;42.55;6.85;;;;;;;16.27;55.20;98963.31;4986053;28;20089;-81
2024/03/30 11:11:39;;;;;;;37.65;6.85;;;;;;;16.23;54.15;98961.28;4979443;28;20106;-80
2024/03/30 11:14:05;;;;;;;47.90;8.77;;;;;;;16.28;53.69;98956.13;4979628;28;20086;-81
2024/03/30 11:16:37;;;;;;;46.50;8.05;;;;;;;16.33;53.50;98964.31;4979844;28;20528;-81
2024/03/30 11:19:06;;;;;;;;;;;;;;;16.31;52.98;98977.88;4981384;28;20109;-81
2024/03/30 11:21:40;;;;;;;55.47;9.43;;;;;;;16.32;52.22;98976.03;4973706;28;19937;-80
2024/03/30 11:24:10;;;;;;;54.72;8.85;;;;;;;16.35;51.25;98979.09;4979584;28;20137;-79
2024/03/30 11:26:47;;;;;;;39.72;7.32;;;;;;;16.27;52.34;98995.34;4978880;28;20050;-79
2024/03/30 11:29:24;;;;;;;45.22;8.52;;;;;;;16.22;51.78;98992.50;4979096;28;20077;-81